createdAt,value
2022-12-15T00:02:21.462Z,30.92
2022-12-15T00:05:07.989Z,34.33
2022-12-15T00:07:54.546Z,37.22
2022-12-15T00:10:40.581Z,39.13
2022-12-15T00:13:31.024Z,35.47
2022-12-15T00:16:17.246Z,34.65
2022-12-15T00:19:03.781Z,34.00
2022-12-15T00:21:49.765Z,30.95
2022-12-15T00:24:35.825Z,32.88
2022-12-15T00:27:21.668Z,32.80
2022-12-15T00:30:07.483Z,34.60
2022-12-15T00:32:53.401Z,36.08
2022-12-15T00:35:39.283Z,33.80
2022-12-15T00:38:31.222Z,34.25
2022-12-15T00:41:01.587Z,30.83
2022-12-15T00:43:30.693Z,32.75
2022-12-15T00:46:17.335Z,34.45
2022-12-15T00:48:44.917Z,33.13
2022-12-15T00:51:13.080Z,34.58
2022-12-15T00:53:58.959Z,35.58
2022-12-15T00:56:45.114Z,33.78
2022-12-15T00:59:32.015Z,36.42
2022-12-15T01:02:18.272Z,32.90
2022-12-15T01:05:04.125Z,33.03
2022-12-15T01:07:50.313Z,36.92
2022-12-15T01:10:37.835Z,36.72
2022-12-15T01:13:24.230Z,31.40
2022-12-15T01:16:10.517Z,40.30
2022-12-15T01:18:56.496Z,38.65
2022-12-15T01:21:25.473Z,34.60
2022-12-15T01:23:53.527Z,39.30
2022-12-15T01:26:21.167Z,38.80
2022-12-15T01:28:48.555Z,45.35
2022-12-15T01:31:17.470Z,38.78
2022-12-15T01:33:44.928Z,43.30
2022-12-15T01:36:12.370Z,39.85
2022-12-15T01:38:39.706Z,40.63
2022-12-15T01:41:10.844Z,40.65
2022-12-15T01:43:39.929Z,39.63
2022-12-15T01:46:15.653Z,40.80
2022-12-15T01:48:53.535Z,40.10
2022-12-15T01:51:37.924Z,36.83
2022-12-15T01:54:39.597Z,35.78
2022-12-15T01:57:16.898Z,38.30
2022-12-15T01:59:50.761Z,41.92
2022-12-15T02:02:20.539Z,40.10
2022-12-15T02:04:51.099Z,35.13
2022-12-15T02:07:19.038Z,37.70
2022-12-15T02:09:47.960Z,38.90
2022-12-15T02:12:21.599Z,38.10
2022-12-15T02:15:09.844Z,38.22
2022-12-15T02:17:39.347Z,36.28
2022-12-15T02:20:57.759Z,36.78
2022-12-15T02:23:53.108Z,40.53
2022-12-15T02:26:33.210Z,37.88
2022-12-15T02:29:18.667Z,38.60
2022-12-15T02:31:58.362Z,38.25
2022-12-15T02:34:57.042Z,37.80
2022-12-15T02:37:32.189Z,33.95
2022-12-15T02:40:00.013Z,41.50
2022-12-15T02:42:29.556Z,38.90
2022-12-15T02:45:17.224Z,41.95
2022-12-15T02:48:25.513Z,38.78
2022-12-15T02:51:21.684Z,42.33
2022-12-15T02:53:51.795Z,36.20
2022-12-15T02:56:26.639Z,39.30
2022-12-15T02:59:40.373Z,41.97
2022-12-15T03:02:10.435Z,36.88
2022-12-15T03:04:40.445Z,38.00
2022-12-15T03:07:10.782Z,39.80
2022-12-15T03:09:42.154Z,40.95
2022-12-15T03:12:11.511Z,42.42
2022-12-15T03:14:40.345Z,38.85
2022-12-15T03:17:07.797Z,40.00
2022-12-15T03:19:35.651Z,37.33
2022-12-15T03:22:04.093Z,43.22
2022-12-15T03:24:32.696Z,42.67
2022-12-15T03:26:59.998Z,41.58
2022-12-15T03:29:30.161Z,42.22
2022-12-15T03:31:57.510Z,39.28
2022-12-15T03:34:25.040Z,40.10
2022-12-15T03:36:52.679Z,39.75
2022-12-15T03:39:20.953Z,44.15
2022-12-15T03:41:49.382Z,43.22
2022-12-15T03:44:16.848Z,41.20
2022-12-15T03:46:44.418Z,46.35
2022-12-15T03:49:11.828Z,46.88
2022-12-15T03:51:39.219Z,41.63
2022-12-15T03:54:07.964Z,40.85
2022-12-15T03:56:35.905Z,41.80
2022-12-15T03:59:03.507Z,44.22
2022-12-15T04:01:33.290Z,41.88
2022-12-15T04:04:02.111Z,44.80
2022-12-15T04:06:30.295Z,41.45
2022-12-15T04:08:58.161Z,43.03
2022-12-15T04:11:26.582Z,48.45
2022-12-15T04:13:55.071Z,44.30
2022-12-15T04:16:22.457Z,43.97
2022-12-15T04:19:12.512Z,48.88
2022-12-15T04:21:40.178Z,43.50
2022-12-15T04:24:26.431Z,44.75
2022-12-15T04:27:12.927Z,45.60
2022-12-15T04:30:00.195Z,45.88
2022-12-15T04:32:49.873Z,46.75
2022-12-15T04:35:36.311Z,47.70
2022-12-15T04:38:22.441Z,44.42
2022-12-15T04:41:08.192Z,52.20
2022-12-15T04:43:54.313Z,49.53
2022-12-15T04:46:40.472Z,48.22
2022-12-15T04:49:26.854Z,49.42
2022-12-15T04:52:12.763Z,48.92
2022-12-15T04:54:58.625Z,52.72
2022-12-15T04:57:44.403Z,51.50
2022-12-15T05:00:31.283Z,52.05
2022-12-15T05:03:22.825Z,47.88
2022-12-15T05:06:08.685Z,55.22
2022-12-15T05:08:54.821Z,58.97
2022-12-15T05:11:40.960Z,54.20
2022-12-15T05:14:27.044Z,49.40
2022-12-15T05:17:15.721Z,52.55
2022-12-15T05:20:01.937Z,53.67
2022-12-15T05:22:47.790Z,50.53
2022-12-15T05:25:33.968Z,51.97
2022-12-15T05:28:20.154Z,52.80
2022-12-15T05:31:06.108Z,53.90
2022-12-15T05:33:33.881Z,60.72
2022-12-15T05:36:01.376Z,58.45
2022-12-15T05:38:28.901Z,56.70
2022-12-15T05:40:58.901Z,56.20
2022-12-15T05:43:26.906Z,53.78
2022-12-15T05:45:54.434Z,59.42
2022-12-15T05:48:22.212Z,56.22
2022-12-15T05:50:50.550Z,59.08
2022-12-15T05:53:20.388Z,60.53
2022-12-15T05:55:47.738Z,63.58
2022-12-15T05:58:15.072Z,63.05
2022-12-15T06:00:42.366Z,63.53
2022-12-15T06:03:09.733Z,63.97
2022-12-15T06:05:37.101Z,58.33
2022-12-15T06:08:04.558Z,57.30
2022-12-15T06:10:31.825Z,59.47
2022-12-15T06:12:59.155Z,59.50
2022-12-15T06:15:26.488Z,57.00
2022-12-15T06:17:55.859Z,66.53
2022-12-15T06:20:23.189Z,65.88
2022-12-15T06:22:50.551Z,62.90
2022-12-15T06:25:18.046Z,60.05
2022-12-15T06:27:48.573Z,61.13
2022-12-15T06:30:16.464Z,63.75
2022-12-15T06:32:43.800Z,65.07
2022-12-15T06:35:11.111Z,63.05
2022-12-15T06:37:38.688Z,60.17
2022-12-15T06:40:06.621Z,60.47
2022-12-15T06:42:36.467Z,69.10
2022-12-15T06:45:07.334Z,67.53
2022-12-15T06:47:35.743Z,64.82
2022-12-15T06:50:03.206Z,67.95
2022-12-15T06:52:30.728Z,65.43
2022-12-15T06:54:58.636Z,67.07
2022-12-15T06:57:26.009Z,66.80
2022-12-15T06:59:53.422Z,70.57
2022-12-15T07:02:26.852Z,65.47
2022-12-15T07:04:56.194Z,69.78
2022-12-15T07:07:24.574Z,76.55
2022-12-15T07:09:53.105Z,72.95
2022-12-15T07:12:21.197Z,69.72
2022-12-15T07:14:53.342Z,72.13
2022-12-15T07:17:23.975Z,70.03
2022-12-15T07:19:52.154Z,73.07
2022-12-15T07:22:21.203Z,71.68
2022-12-15T07:24:48.933Z,76.47
2022-12-15T07:27:16.387Z,73.90
2022-12-15T07:29:43.686Z,76.90
2022-12-15T07:32:11.099Z,71.55
2022-12-15T07:34:39.448Z,69.75
2022-12-15T07:37:11.841Z,71.07
2022-12-15T07:39:40.826Z,77.45
2022-12-15T07:42:08.151Z,71.80
2022-12-15T07:44:35.639Z,73.25
2022-12-15T07:47:02.963Z,74.93
2022-12-15T07:49:30.307Z,81.88
2022-12-15T07:51:58.593Z,76.30
2022-12-15T07:54:26.095Z,78.63
2022-12-15T07:56:53.644Z,79.82
2022-12-15T07:59:30.842Z,77.53
2022-12-15T08:02:00.668Z,82.53
2022-12-15T08:04:33.407Z,83.13
2022-12-15T08:07:01.321Z,78.88
2022-12-15T08:09:28.834Z,85.50
2022-12-15T08:11:56.888Z,81.75
2022-12-15T08:14:25.029Z,82.32
2022-12-15T08:16:53.015Z,81.82
2022-12-15T08:19:21.036Z,84.90
2022-12-15T08:21:51.461Z,79.00
2022-12-15T08:24:19.544Z,78.25
2022-12-15T08:26:50.195Z,80.95
2022-12-15T08:29:49.460Z,76.70
2022-12-15T08:32:08.271Z,81.55
2022-12-15T08:34:37.998Z,77.47
2022-12-15T08:37:05.391Z,84.75
2022-12-15T08:39:32.713Z,81.43
2022-12-15T08:42:01.412Z,92.00
2022-12-15T08:44:28.928Z,88.60
2022-12-15T08:46:56.261Z,83.70
2022-12-15T08:49:23.773Z,77.88
2022-12-15T08:51:51.610Z,85.05
2022-12-15T08:54:20.097Z,77.93
2022-12-15T08:56:47.909Z,79.90
2022-12-15T08:59:15.782Z,73.93
2022-12-15T09:01:43.707Z,73.65
2022-12-15T09:04:11.628Z,78.45
2022-12-15T09:06:39.901Z,88.32
2022-12-15T09:09:09.022Z,72.30
2022-12-15T09:11:39.569Z,73.07
2022-12-15T09:14:08.582Z,70.82
2022-12-15T09:16:36.207Z,73.57
2022-12-15T09:19:05.313Z,73.72
2022-12-15T09:21:32.875Z,75.70
2022-12-15T09:24:02.726Z,76.50
2022-12-15T09:26:42.735Z,74.28
2022-12-15T09:29:14.412Z,81.05
2022-12-15T09:31:44.669Z,70.47
2022-12-15T09:34:15.902Z,74.68
2022-12-15T09:36:43.299Z,68.85
2022-12-15T09:39:12.396Z,71.78
2022-12-15T09:41:57.273Z,69.40
2022-12-15T09:44:26.598Z,71.85
2022-12-15T09:47:21.929Z,70.88
2022-12-15T09:50:01.700Z,72.82
2022-12-15T09:52:52.236Z,70.03
2022-12-15T09:55:26.380Z,67.35
2022-12-15T09:58:06.017Z,66.43
2022-12-15T10:00:44.658Z,71.30
2022-12-15T10:03:40.019Z,71.05
2022-12-15T10:06:21.612Z,75.10
2022-12-15T10:09:02.282Z,70.28
2022-12-15T10:11:57.849Z,64.70
2022-12-15T10:15:03.625Z,71.40
2022-12-15T10:17:41.903Z,70.68
2022-12-15T10:20:29.757Z,72.90
2022-12-15T10:23:02.679Z,62.40
2022-12-15T10:25:33.414Z,77.32
2022-12-15T10:28:07.102Z,72.18
2022-12-15T10:30:37.714Z,69.35
2022-12-15T10:33:25.402Z,73.32
2022-12-15T10:35:57.635Z,69.53
2022-12-15T10:38:42.472Z,65.25
2022-12-15T10:41:22.276Z,66.38
2022-12-15T10:43:51.620Z,64.97
2022-12-15T10:46:22.187Z,68.47
2022-12-15T10:49:06.330Z,67.85
2022-12-15T10:51:37.386Z,69.00
2022-12-15T10:54:07.463Z,64.43
2022-12-15T10:56:55.970Z,63.72
2022-12-15T10:59:25.376Z,71.68
2022-12-15T11:01:56.521Z,66.30
2022-12-15T11:04:33.830Z,70.22
2022-12-15T11:07:03.842Z,62.63
2022-12-15T11:09:39.545Z,54.45
2022-12-15T11:12:40.625Z,55.88
2022-12-15T11:15:42.355Z,60.15
2022-12-15T11:18:29.287Z,52.83
2022-12-15T11:21:23.952Z,60.05
2022-12-15T11:24:09.033Z,56.33
2022-12-15T11:26:44.821Z,55.78
2022-12-15T11:29:41.673Z,51.53
2022-12-15T11:32:11.938Z,56.72
2022-12-15T11:34:49.567Z,47.05
2022-12-15T11:37:40.417Z,47.20
2022-12-15T11:40:40.921Z,51.30
2022-12-15T11:43:20.217Z,52.42
2022-12-15T11:46:24.295Z,43.58
2022-12-15T11:49:25.724Z,47.70
2022-12-15T11:51:59.791Z,43.25
2022-12-15T11:54:45.326Z,36.42
2022-12-15T11:57:48.763Z,36.60
2022-12-15T12:00:21.690Z,33.00
2022-12-15T12:03:10.402Z,31.50
2022-12-15T12:05:58.381Z,32.88
2022-12-15T12:08:47.218Z,32.88
2022-12-15T12:11:56.790Z,43.70
2022-12-15T12:14:27.419Z,34.33
2022-12-15T12:17:02.582Z,37.65
2022-12-15T12:19:42.864Z,37.28
2022-12-15T12:22:26.144Z,30.08
2022-12-15T12:25:00.690Z,33.92
2022-12-15T12:27:36.435Z,32.50
2022-12-15T12:30:17.523Z,34.75
2022-12-15T12:32:57.256Z,34.53
2022-12-15T12:35:45.139Z,34.95
2022-12-15T12:38:13.719Z,36.35
2022-12-15T12:40:40.978Z,34.63
2022-12-15T12:43:14.193Z,33.13
2022-12-15T12:45:47.864Z,29.60
2022-12-15T12:48:34.611Z,32.28
2022-12-15T12:51:25.139Z,29.95
2022-12-15T12:53:53.100Z,30.50
2022-12-15T12:56:36.965Z,32.20
2022-12-15T12:59:24.598Z,28.95
2022-12-15T13:01:52.130Z,26.25
2022-12-15T13:04:33.888Z,25.98
2022-12-15T13:07:26.179Z,29.45
2022-12-15T13:10:27.260Z,28.50
2022-12-15T13:12:58.919Z,29.35
2022-12-15T13:15:29.454Z,26.50
2022-12-15T13:18:21.767Z,29.42
2022-12-15T13:20:51.039Z,30.20
2022-12-15T13:23:24.637Z,26.63
2022-12-15T13:25:57.556Z,29.83
2022-12-15T13:28:39.144Z,30.80
2022-12-15T13:31:20.135Z,32.15
2022-12-15T13:33:52.743Z,33.55
2022-12-15T13:36:41.351Z,33.00
2022-12-15T13:39:17.849Z,29.35
2022-12-15T13:42:32.618Z,34.10
2022-12-15T13:44:58.039Z,33.53
2022-12-15T13:47:30.085Z,41.83
2022-12-15T13:50:03.201Z,30.63
2022-12-15T13:55:40.182Z,30.60
2022-12-15T13:58:31.921Z,32.80
2022-12-15T14:00:59.706Z,35.03
2022-12-15T14:03:27.566Z,33.88
2022-12-15T14:05:57.280Z,36.50
2022-12-15T14:08:27.920Z,36.42
2022-12-15T14:11:22.508Z,33.53
2022-12-15T14:13:54.306Z,36.65
2022-12-15T14:16:23.058Z,39.53
2022-12-15T14:19:12.836Z,40.63
2022-12-15T14:21:40.183Z,36.90
2022-12-15T14:24:46.781Z,39.95
2022-12-15T14:27:27.741Z,38.60
2022-12-15T14:30:22.542Z,39.42
2022-12-15T14:32:56.023Z,43.67
2022-12-15T14:35:49.403Z,37.00
2022-12-15T14:38:21.316Z,36.55
2022-12-15T14:40:52.103Z,41.05
2022-12-15T14:43:26.147Z,41.50
2022-12-15T14:46:15.037Z,37.75
2022-12-15T14:49:04.680Z,40.90
2022-12-15T14:51:39.680Z,40.38
2022-12-15T14:54:26.022Z,42.30
2022-12-15T14:57:25.939Z,38.08
2022-12-15T14:59:53.778Z,44.85
2022-12-15T15:02:28.420Z,43.90
2022-12-15T15:05:04.201Z,44.55
2022-12-15T15:07:36.295Z,42.58
2022-12-15T15:10:08.550Z,43.17
2022-12-15T15:12:44.733Z,43.55
2022-12-15T15:15:19.503Z,46.38
2022-12-15T15:17:52.647Z,44.58
2022-12-15T15:20:29.601Z,49.22
2022-12-15T15:23:10.954Z,52.28
2022-12-15T15:25:56.556Z,51.42
2022-12-15T15:28:36.197Z,53.28
2022-12-15T15:31:27.454Z,53.35
2022-12-15T15:33:57.886Z,54.33
2022-12-15T15:36:32.617Z,60.05
2022-12-15T15:39:00.421Z,53.38
2022-12-15T15:41:29.584Z,55.50
2022-12-15T15:44:01.571Z,56.60
2022-12-15T15:46:35.760Z,61.80
2022-12-15T15:49:12.628Z,63.58
2022-12-15T15:51:39.929Z,65.00
2022-12-15T15:54:10.785Z,61.92
2022-12-15T15:56:39.176Z,69.47
2022-12-15T15:59:12.644Z,65.45
2022-12-15T16:01:48.926Z,66.78
2022-12-15T16:04:16.402Z,63.67
2022-12-15T16:09:47.867Z,67.40
2022-12-15T16:12:27.475Z,69.85
2022-12-15T16:14:55.598Z,68.90
2022-12-15T16:17:23.702Z,68.72
2022-12-15T16:19:51.121Z,72.93
2022-12-15T16:22:20.951Z,73.97
2022-12-15T16:25:46.737Z,83.97
2022-12-15T16:28:25.962Z,74.35
2022-12-15T16:31:01.588Z,72.13
2022-12-15T16:33:29.012Z,79.85
2022-12-15T16:35:57.258Z,72.13
2022-12-15T16:38:30.180Z,80.40
2022-12-15T16:41:04.549Z,72.78
2022-12-15T16:43:37.355Z,73.82
2022-12-15T16:46:07.627Z,76.18
2022-12-15T16:48:35.657Z,85.65
2022-12-15T16:51:33.822Z,74.85
2022-12-15T16:54:01.268Z,80.95
2022-12-15T16:56:28.498Z,79.95
2022-12-15T16:59:30.894Z,76.25
2022-12-15T17:01:48.070Z,77.72
2022-12-15T17:04:21.969Z,77.60
2022-12-15T17:06:49.399Z,81.88
2022-12-15T17:09:22.251Z,83.38
2022-12-15T17:14:16.823Z,81.13
2022-12-15T17:16:44.039Z,80.25
2022-12-15T17:19:13.930Z,80.38
2022-12-15T17:21:50.477Z,86.93
2022-12-15T17:26:45.983Z,80.82
2022-12-15T17:29:16.911Z,82.00
2022-12-15T17:31:44.433Z,80.80
2022-12-15T17:34:30.580Z,88.35
2022-12-15T17:36:59.814Z,82.57
2022-12-15T17:39:27.834Z,85.65
2022-12-15T17:42:00.575Z,75.60
2022-12-15T17:44:34.858Z,85.70
2022-12-15T17:47:04.455Z,87.32
2022-12-15T17:49:36.140Z,92.10
2022-12-15T17:52:09.218Z,90.95
2022-12-15T17:54:36.627Z,83.43
2022-12-15T17:57:03.948Z,84.82
2022-12-15T17:59:32.309Z,89.07
2022-12-15T18:01:59.767Z,91.60
2022-12-15T18:04:27.286Z,88.07
2022-12-15T18:07:01.252Z,87.50
2022-12-15T18:09:29.913Z,89.03
2022-12-15T18:11:57.440Z,91.47
2022-12-15T18:14:24.818Z,93.50
2022-12-15T18:16:52.307Z,96.32
2022-12-15T18:19:20.250Z,100.25
2022-12-15T18:21:47.599Z,100.97
2022-12-15T18:24:17.050Z,110.40
2022-12-15T18:26:44.767Z,107.18
2022-12-15T18:29:19.703Z,110.88
2022-12-15T18:31:48.402Z,105.10
2022-12-15T18:34:18.132Z,104.57
2022-12-15T18:36:45.658Z,110.45
2022-12-15T18:39:22.075Z,108.07
2022-12-15T18:41:50.421Z,106.60
2022-12-15T18:44:28.933Z,102.78
2022-12-15T18:46:56.339Z,106.20
2022-12-15T18:49:24.118Z,103.47
2022-12-15T18:51:51.627Z,103.10
2022-12-15T18:54:23.990Z,107.32
2022-12-15T18:56:51.678Z,106.25
2022-12-15T18:59:19.690Z,112.18
2022-12-15T19:01:48.509Z,108.03
2022-12-15T19:04:16.464Z,108.63
2022-12-15T19:06:46.702Z,121.28
2022-12-15T19:09:19.949Z,122.80
2022-12-15T19:12:07.403Z,122.15
2022-12-15T19:14:40.669Z,125.70
2022-12-15T19:17:36.974Z,123.25
2022-12-15T19:20:25.903Z,125.35
2022-12-15T19:22:53.500Z,135.82
2022-12-15T19:25:25.775Z,129.90
2022-12-15T19:27:58.933Z,135.75
2022-12-15T19:32:55.193Z,132.70
2022-12-15T19:35:22.743Z,141.48
2022-12-15T19:37:50.184Z,141.02
2022-12-15T19:40:23.184Z,140.50
2022-12-15T19:42:53.397Z,142.48
2022-12-15T19:45:31.867Z,162.20
2022-12-15T19:48:02.427Z,143.55
2022-12-15T19:50:38.795Z,145.23
2022-12-15T19:53:17.467Z,142.80
2022-12-15T19:55:45.193Z,150.95
2022-12-15T19:58:33.031Z,150.20
2022-12-15T20:01:02.938Z,155.85
2022-12-15T20:03:31.321Z,153.30
2022-12-15T20:06:03.291Z,163.27
2022-12-15T20:08:38.017Z,155.52
2022-12-15T20:11:05.468Z,157.65
2022-12-15T20:13:33.221Z,169.55
2022-12-15T20:16:00.721Z,174.10
2022-12-15T20:18:28.094Z,176.45
2022-12-15T20:20:55.771Z,181.07
2022-12-15T20:23:26.343Z,194.98
2022-12-15T20:26:09.429Z,199.80
2022-12-15T20:28:36.764Z,218.25
2022-12-15T20:31:04.531Z,209.07
2022-12-15T20:33:35.992Z,213.48
2022-12-15T20:36:03.447Z,196.73
2022-12-15T20:38:33.998Z,206.95
2022-12-15T20:41:03.691Z,181.60
2022-12-15T20:43:36.352Z,177.07
2022-12-15T20:46:18.984Z,165.48
2022-12-15T20:48:51.086Z,152.73
2022-12-15T20:51:28.443Z,153.43
2022-12-15T20:53:57.385Z,136.93
2022-12-15T20:56:25.028Z,136.88
2022-12-15T20:58:53.726Z,126.05
2022-12-15T21:01:27.837Z,128.55
2022-12-15T21:04:03.557Z,124.85
2022-12-15T21:06:31.355Z,122.82
2022-12-15T21:08:58.928Z,117.88
2022-12-15T21:11:32.299Z,126.63
2022-12-15T21:14:06.668Z,120.47
2022-12-15T21:16:34.415Z,126.60
2022-12-15T21:19:19.674Z,127.10
2022-12-15T21:21:54.761Z,120.85
2022-12-15T21:24:25.849Z,122.70
2022-12-15T21:26:53.704Z,124.60
2022-12-15T21:29:29.891Z,124.25
2022-12-15T21:31:57.394Z,122.40
2022-12-15T21:34:24.745Z,128.65
2022-12-15T21:36:55.162Z,132.80
2022-12-15T21:39:30.077Z,126.78
2022-12-15T21:42:03.461Z,140.75
2022-12-15T21:44:30.834Z,127.68
2022-12-15T21:46:58.710Z,126.95
2022-12-15T21:49:26.410Z,133.50
2022-12-15T21:51:57.302Z,116.38
2022-12-15T21:54:32.259Z,126.78
2022-12-15T21:57:00.419Z,119.82
2022-12-15T21:59:30.418Z,114.97
2022-12-15T22:01:58.279Z,119.82
2022-12-15T22:04:35.649Z,105.13
2022-12-15T22:07:03.236Z,108.25
2022-12-15T22:09:30.532Z,104.93
2022-12-15T22:11:58.151Z,108.75
2022-12-15T22:14:29.449Z,108.80
2022-12-15T22:16:58.171Z,108.53
2022-12-15T22:19:26.009Z,102.97
2022-12-15T22:21:53.534Z,115.47
2022-12-15T22:24:21.049Z,105.28
2022-12-15T22:26:52.804Z,110.43
2022-12-15T22:29:23.470Z,113.57
2022-12-15T22:31:51.802Z,110.20
2022-12-15T22:34:21.793Z,104.32
2022-12-15T22:36:52.285Z,108.40
2022-12-15T22:39:19.866Z,106.93
2022-12-15T22:41:50.357Z,106.43
2022-12-15T22:44:26.739Z,114.53
2022-12-15T22:46:59.512Z,119.20
2022-12-15T22:49:34.669Z,111.18
2022-12-15T22:52:02.231Z,113.20
2022-12-15T22:54:34.802Z,116.53
2022-12-15T22:57:19.270Z,108.95
2022-12-15T23:00:00.546Z,116.05
2022-12-15T23:02:31.559Z,119.15
2022-12-15T23:04:58.977Z,115.72
2022-12-15T23:07:26.375Z,114.65
2022-12-15T23:10:13.627Z,113.38
2022-12-15T23:12:41.608Z,123.68
2022-12-15T23:15:38.789Z,106.68
2022-12-15T23:18:06.212Z,107.55
2022-12-15T23:20:33.566Z,107.72
2022-12-15T23:23:00.947Z,116.93
2022-12-15T23:25:28.699Z,103.03
2022-12-15T23:27:56.265Z,106.28
2022-12-15T23:30:24.522Z,109.28
2022-12-15T23:32:52.075Z,110.60
2022-12-15T23:35:22.656Z,100.07
2022-12-15T23:37:49.940Z,108.35
2022-12-15T23:40:22.357Z,114.50
2022-12-15T23:42:50.863Z,94.00
2022-12-15T23:45:18.882Z,88.50
2022-12-15T23:47:46.294Z,96.82
2022-12-15T23:50:14.007Z,99.07
2022-12-15T23:52:41.439Z,95.18
2022-12-15T23:55:10.219Z,92.47
2022-12-15T23:57:38.621Z,118.63
